createdAt,value
2023-04-25T00:03:13.626Z,72.71
2023-04-25T00:08:15.229Z,72.59
2023-04-25T00:13:18.331Z,73.13
2023-04-25T00:18:20.996Z,73.01
2023-04-25T00:23:22.495Z,72.48
2023-04-25T00:28:23.832Z,72.66
2023-04-25T00:33:25.344Z,72.51
2023-04-25T00:38:26.711Z,72.71
2023-04-25T00:43:31.145Z,72.87
2023-04-25T00:48:32.616Z,72.76
2023-04-25T00:53:34.171Z,73.04
2023-04-25T00:58:35.766Z,72.80
2023-04-25T01:03:44.011Z,73.39
2023-04-25T01:08:45.704Z,73.14
2023-04-25T01:13:47.149Z,73.17
2023-04-25T01:18:49.220Z,73.11
2023-04-25T01:23:51.207Z,73.21
2023-04-25T01:28:53.096Z,72.88
2023-04-25T01:33:54.510Z,73.22
2023-04-25T01:38:56.254Z,73.20
2023-04-25T01:43:57.901Z,73.06
2023-04-25T01:48:59.248Z,72.14
2023-04-25T01:54:01.519Z,72.52
2023-04-25T01:59:02.929Z,72.41
2023-04-25T02:04:04.567Z,71.71
2023-04-25T02:09:06.163Z,71.22
2023-04-25T02:14:07.503Z,70.95
2023-04-25T02:19:08.884Z,70.79
2023-04-25T02:24:10.419Z,70.71
2023-04-25T02:29:11.857Z,69.72
2023-04-25T02:34:13.218Z,70.03
2023-04-25T02:39:14.576Z,70.16
2023-04-25T02:44:15.955Z,69.90
2023-04-25T02:49:17.293Z,69.75
2023-04-25T02:54:18.656Z,69.94
2023-04-25T02:59:20.258Z,69.99
2023-04-25T03:04:24.670Z,70.13
2023-04-25T03:09:26.241Z,70.20
2023-04-25T03:14:27.590Z,69.88
2023-04-25T03:19:28.935Z,70.10
2023-04-25T03:24:30.370Z,69.99
2023-04-25T03:29:31.735Z,69.80
2023-04-25T03:34:33.138Z,70.03
2023-04-25T03:39:34.510Z,69.84
2023-04-25T03:44:35.832Z,69.77
2023-04-25T03:49:37.740Z,69.07
2023-04-25T03:54:39.483Z,69.10
2023-04-25T03:59:40.986Z,68.68
2023-04-25T04:04:42.604Z,68.59
2023-04-25T04:09:44.226Z,68.37
2023-04-25T04:14:45.574Z,67.66
2023-04-25T04:19:47.033Z,67.60
2023-04-25T04:24:48.481Z,68.13
2023-04-25T04:29:51.146Z,67.96
2023-04-25T04:34:53.162Z,67.64
2023-04-25T04:39:54.659Z,67.50
2023-04-25T04:44:56.084Z,67.51
2023-04-25T04:49:58.091Z,67.17
2023-04-25T04:54:59.535Z,67.28
2023-04-25T05:00:01.464Z,67.83
2023-04-25T05:05:02.870Z,67.14
2023-04-25T05:10:04.669Z,67.15
2023-04-25T05:15:06.657Z,67.15
2023-04-25T05:20:10.226Z,67.17
2023-04-25T05:25:11.872Z,67.12
2023-04-25T05:30:13.277Z,66.99
2023-04-25T05:35:14.658Z,66.54
2023-04-25T05:40:16.172Z,66.41
2023-04-25T05:45:18.493Z,66.20
2023-04-25T05:50:19.843Z,65.41
2023-04-25T05:55:21.187Z,65.48
2023-04-25T06:00:23.740Z,65.14
2023-04-25T06:05:25.929Z,64.90
2023-04-25T06:10:27.538Z,64.79
2023-04-25T06:15:29.382Z,64.49
2023-04-25T06:20:30.801Z,63.77
2023-04-25T06:25:32.203Z,63.65
2023-04-25T06:30:33.523Z,63.29
2023-04-25T06:35:35.370Z,62.90
2023-04-25T06:40:36.801Z,62.79
2023-04-25T06:45:38.137Z,62.11
2023-04-25T06:50:39.589Z,61.41
2023-04-25T06:55:41.348Z,61.04
2023-04-25T07:00:43.158Z,60.93
2023-04-25T07:05:46.654Z,60.36
2023-04-25T07:10:49.877Z,60.39
2023-04-25T07:15:51.652Z,59.64
2023-04-25T07:20:52.999Z,59.31
2023-04-25T07:25:54.477Z,59.28
2023-04-25T07:30:55.795Z,58.65
2023-04-25T07:35:57.496Z,58.45
2023-04-25T07:40:58.859Z,58.01
2023-04-25T07:46:00.381Z,57.67
2023-04-25T07:51:01.772Z,56.67
2023-04-25T07:56:03.136Z,55.98
2023-04-25T08:01:04.633Z,55.59
2023-04-25T08:06:08.126Z,54.92
2023-04-25T08:11:10.263Z,54.19
2023-04-25T08:16:11.701Z,54.13
2023-04-25T08:21:13.302Z,54.11
2023-04-25T08:26:14.722Z,53.87
2023-04-25T08:31:16.110Z,53.36
2023-04-25T08:36:27.872Z,53.38
2023-04-25T08:41:41.713Z,52.81
2023-04-25T08:46:43.737Z,52.03
2023-04-25T08:51:47.799Z,52.16
2023-04-25T08:56:49.490Z,51.50
2023-04-25T09:01:52.320Z,50.58
2023-04-25T09:06:53.660Z,50.45
2023-04-25T09:11:55.523Z,50.29
2023-04-25T09:16:56.874Z,50.30
2023-04-25T09:22:00.250Z,50.48
2023-04-25T09:27:05.000Z,49.42
2023-04-25T09:32:25.571Z,48.77
2023-04-25T09:37:31.352Z,48.37
2023-04-25T09:42:35.344Z,46.88
2023-04-25T09:47:38.764Z,46.26
2023-04-25T09:52:40.296Z,46.04
2023-04-25T09:57:42.276Z,45.81
2023-04-25T10:02:47.735Z,45.00
2023-04-25T10:07:49.276Z,45.29
2023-04-25T10:12:50.776Z,45.21
2023-04-25T10:17:52.671Z,45.86
2023-04-25T10:22:57.388Z,47.08
2023-04-25T10:28:00.650Z,47.51
2023-04-25T10:33:02.018Z,47.90
2023-04-25T10:38:10.864Z,47.73
2023-04-25T10:43:41.585Z,47.52
2023-04-25T10:48:51.827Z,47.82
2023-04-25T10:53:56.286Z,47.25
2023-04-25T10:59:12.818Z,46.80
2023-04-25T11:04:32.035Z,46.37
2023-04-25T11:09:35.847Z,46.13
2023-04-25T11:14:37.498Z,46.04
2023-04-25T11:19:38.829Z,45.55
2023-04-25T11:24:40.349Z,45.20
2023-04-25T11:29:42.087Z,44.42
2023-04-25T11:34:46.108Z,42.69
2023-04-25T11:39:48.161Z,41.49
2023-04-25T11:44:49.713Z,40.88
2023-04-25T11:49:54.496Z,40.07
2023-04-25T11:54:57.193Z,40.40
2023-04-25T12:00:08.121Z,40.63
2023-04-25T12:05:29.475Z,40.95
2023-04-25T12:10:32.182Z,41.49
2023-04-25T12:15:34.499Z,42.05
2023-04-25T12:20:36.351Z,42.56
2023-04-25T12:25:43.039Z,42.43
2023-04-25T12:31:05.137Z,42.95
2023-04-25T12:36:11.988Z,43.01
2023-04-25T12:41:13.366Z,42.92
2023-04-25T12:46:14.750Z,41.96
2023-04-25T12:51:16.258Z,40.95
2023-04-25T12:56:17.640Z,40.03
2023-04-25T13:01:19.005Z,39.72
2023-04-25T13:06:21.552Z,39.94
2023-04-25T13:11:22.913Z,39.50
2023-04-25T13:16:24.414Z,39.28
2023-04-25T13:21:26.385Z,39.84
2023-04-25T13:26:27.826Z,39.55
2023-04-25T13:31:29.215Z,39.10
2023-04-25T13:36:30.593Z,39.01
2023-04-25T13:41:32.051Z,38.53
2023-04-25T13:46:45.580Z,38.47
2023-04-25T13:51:48.670Z,38.53
2023-04-25T13:56:51.401Z,37.98
2023-04-25T14:01:52.949Z,37.67
2023-04-25T14:06:54.417Z,37.07
2023-04-25T14:11:56.120Z,35.40
2023-04-25T14:16:58.190Z,33.64
2023-04-25T14:21:59.612Z,33.94
2023-04-25T14:27:01.670Z,34.28
2023-04-25T14:32:03.549Z,34.11
2023-04-25T14:37:04.948Z,34.04
2023-04-25T14:42:06.420Z,34.25
2023-04-25T14:47:07.854Z,35.07
2023-04-25T14:52:09.262Z,35.37
2023-04-25T14:57:10.611Z,35.96
2023-04-25T15:02:12.300Z,35.65
2023-04-25T15:07:13.640Z,34.96
2023-04-25T15:12:15.332Z,34.94
2023-04-25T15:17:16.934Z,35.04
2023-04-25T15:22:18.287Z,34.94
2023-04-25T15:27:19.622Z,35.33
2023-04-25T15:32:22.113Z,34.97
2023-04-25T15:37:23.505Z,35.56
2023-04-25T15:42:24.877Z,35.25
2023-04-25T15:47:27.244Z,33.99
2023-04-25T15:52:28.746Z,34.57
2023-04-25T15:57:30.858Z,33.64
2023-04-25T16:02:32.429Z,33.43
2023-04-25T16:07:33.852Z,33.28
2023-04-25T16:12:36.258Z,33.57
2023-04-25T16:17:37.659Z,33.57
2023-04-25T16:22:40.644Z,33.64
2023-04-25T16:27:42.021Z,33.90
2023-04-25T16:32:45.396Z,34.68
2023-04-25T16:37:47.686Z,34.40
2023-04-25T16:42:49.109Z,34.43
2023-04-25T16:47:50.557Z,33.83
2023-04-25T16:52:52.004Z,33.78
2023-04-25T16:57:53.330Z,33.84
2023-04-25T17:02:54.810Z,33.66
2023-04-25T17:07:56.815Z,33.88
2023-04-25T17:12:58.162Z,34.41
2023-04-25T17:18:00.625Z,34.54
2023-04-25T17:23:02.208Z,35.08
2023-04-25T17:28:03.787Z,34.70
2023-04-25T17:33:06.581Z,34.63
2023-04-25T17:38:08.646Z,34.20
2023-04-25T17:43:10.051Z,34.29
2023-04-25T17:48:11.459Z,34.26
2023-04-25T17:53:12.798Z,34.67
2023-04-25T17:58:14.826Z,34.59
2023-04-25T18:03:16.405Z,35.06
2023-04-25T18:08:18.438Z,35.98
2023-04-25T18:13:19.762Z,35.97
2023-04-25T18:18:25.313Z,36.84
2023-04-25T18:23:27.430Z,37.58
2023-04-25T18:28:29.210Z,38.28
2023-04-25T18:33:31.509Z,39.28
2023-04-25T18:38:35.843Z,39.90
2023-04-25T18:43:37.678Z,39.82
2023-04-25T18:48:39.030Z,40.07
2023-04-25T18:53:41.267Z,40.60
2023-04-25T18:58:42.747Z,40.67
2023-04-25T19:03:44.793Z,41.09
2023-04-25T19:08:46.576Z,41.29
2023-04-25T19:13:51.228Z,41.53
2023-04-25T19:18:54.582Z,42.02
2023-04-25T19:23:56.429Z,41.60
2023-04-25T19:29:09.726Z,42.28
2023-04-25T19:34:12.843Z,42.84
2023-04-25T19:39:14.485Z,42.92
2023-04-25T19:44:15.885Z,42.45
2023-04-25T19:49:17.211Z,42.27
2023-04-25T19:54:18.555Z,42.53
2023-04-25T19:59:20.055Z,42.67
2023-04-25T20:04:21.454Z,42.54
2023-04-25T20:09:23.267Z,42.69
2023-04-25T20:14:24.579Z,42.82
2023-04-25T20:19:25.896Z,42.84
2023-04-25T20:24:27.370Z,43.02
2023-04-25T20:29:28.683Z,42.73
2023-04-25T20:34:31.516Z,43.65
2023-04-25T20:39:33.197Z,43.76
2023-04-25T20:44:34.528Z,43.83
2023-04-25T20:49:36.427Z,43.65
2023-04-25T20:54:38.372Z,43.75
2023-04-25T20:59:39.676Z,44.18
2023-04-25T21:04:42.533Z,44.28
2023-04-25T21:09:45.345Z,44.87
2023-04-25T21:14:46.712Z,45.39
2023-04-25T21:19:48.034Z,45.86
2023-04-25T21:24:50.698Z,45.95
2023-04-25T21:29:52.040Z,46.64
2023-04-25T21:34:53.367Z,47.03
2023-04-25T21:39:54.699Z,47.21
2023-04-25T21:44:56.099Z,46.93
2023-04-25T21:49:59.200Z,47.91
2023-04-25T21:55:00.868Z,47.97
2023-04-25T22:00:04.330Z,48.31
2023-04-25T22:05:06.409Z,48.50
2023-04-25T22:10:08.212Z,49.04
2023-04-25T22:15:10.316Z,48.93
2023-04-25T22:20:13.775Z,48.74
2023-04-25T22:25:15.151Z,49.36
2023-04-25T22:30:16.977Z,48.97
2023-04-25T22:35:19.188Z,49.61
2023-04-25T22:40:20.554Z,49.57
2023-04-25T22:45:21.900Z,50.11
2023-04-25T22:50:23.266Z,50.34
2023-04-25T22:55:26.389Z,50.69
2023-04-25T23:00:30.176Z,50.88
2023-04-25T23:05:32.712Z,50.97
2023-04-25T23:10:34.166Z,51.38
2023-04-25T23:15:35.815Z,51.51
2023-04-25T23:20:37.353Z,52.40
2023-04-25T23:25:41.622Z,52.32
2023-04-25T23:30:43.017Z,53.01
2023-04-25T23:35:44.382Z,52.58
2023-04-25T23:40:45.920Z,52.92
2023-04-25T23:45:47.365Z,53.75
2023-04-25T23:50:48.690Z,53.88
2023-04-25T23:55:50.023Z,53.86
